Arbor Realty Trust Inc (ABR) Latest Bloomsberg Price


Mffais Ranking #1046 Overall / #14 Industry
Industry: Mortgage Finance

Number of Companies: 43 (Ranking #2369 Overall/#39 Industry)
Inflow: $ 4,306 (K) (Ranking #2248 Overall/#32 Industry)
Outflow: $ -4,284 (K)
Mffais Flow: $ 21 (K) (Ranking #1046 Overall/#14 Industry)


Receive a FREE weekly executive review of stocks moving into the top 10, taking the top industy spot or moving up within their industry. Sent directly to your Inbox every Saturday. Sign up today and get last week's review immediately sent to you.

We value and respect your privacy. Please read our Terms and Conditions which states our firm commitment to your privacy. Your email address will not be shared with a third party, nor will it be sold or used for purposes other than subscription for the weekly review.

Owner CPOR Shares Action Qty Chg Invested (K) Total Current Value (K)
Wasatch Advisors Inc 2016-09-30 2,355,096 Added More 188,002 $ 1,344 $ 16,838
Orinda Asset Management Llc 2016-09-30 119,630 New Holding 119,630 $ 855 $ 855
Clarivest Asset Management Llc 2016-09-30 171,436 Added More 47,323 $ 338 $ 1,225
Raymond James Associates 2016-09-30 34,535 New Holding 34,535 $ 246 $ 246
Jacobs Levy Equity Management Inc 2016-09-30 36,701 Added More 19,501 $ 139 $ 262
C M Bidwell Associates Ltd 2016-09-30 19,000 New Holding 19,000 $ 135 $ 135
Hancock Holding Co 2016-09-30 17,300 New Holding 17,300 $ 123 $ 123
Mackenzie Financial Corp 2016-09-30 29,914 Added More 16,047 $ 114 $ 213
Blackrock Inc 2016-09-30 69,403 Added More 15,054 $ 107 $ 496
Gsa Capital Partners Llp 2016-09-30 14,366 New Holding 14,366 $ 102 $ 102
Nationwide Fund Advisors 2016-09-30 35,020 Added More 14,300 $ 102 $ 250
Nuveen Fund Advisors Llc 2016-09-30 11,386 New Holding 11,386 $ 81 $ 81
Envestnet Asset Management Inc 2016-09-30 12,865 Added More 10,865 $ 77 $ 91
Nine Chapters Capital Management Llc 2016-09-30 10,800 New Holding 10,800 $ 77 $ 77
Hillsdale Investment Management Inc 2016-09-30 61,000 Added More 10,500 $ 75 $ 436
Northern Trust Corp 2016-09-30 125,037 Added More 10,248 $ 73 $ 894
Tower Research Capital Llc Trc 2016-09-30 10,297 Added More 10,020 $ 71 $ 73
Springbok Capital Management Llc 2016-09-30 10,800 Added More 9,200 $ 65 $ 77
Simplex Trading Llc 2016-09-30 7,054 New Holding 7,054 $ 50 $ 50
Acrospire Investment Management Llc 2016-09-30 6,085 New Holding 6,085 $ 43 $ 43
Baird Financial Group Inc 2016-09-30 165,435 Added More 3,944 $ 28 $ 1,182
Advisor Group Inc 2016-09-30 10,960 Added More 3,497 $ 25 $ 78
Salzhauer Michael 2016-09-30 221,503 Added More 1,250 $ 8 $ 1,583
Salem Investment Counselors Inc 2016-09-30 1,000 New Holding 1,000 $ 7 $ 7
Qs Investors Llc 2016-09-30 787 New Holding 787 $ 5 $ 5
Cutler Group Lp 2016-09-30 1,922 Added More 600 $ 4 $ 13
Msi Financial Services Inc 2016-09-30 254 Added More 4 $ 0 $ 1
Ladenburg Thalmann Financial Services Inc 2016-09-30 2,000 No Change 0 $ 0 $ 14
Clear Harbor Asset Management Llc 2016-09-30 17,200 No Change 0 $ 0 $ 122
Sii Investments Inc Wi 2016-09-30 83,600 No Change 0 $ 0 $ 597
North Star Investment Management Corp 2016-09-30 500 No Change 0 $ 0 $ 3
Opus Capital Group Llc 2016-09-30 13,370 No Change 0 $ 0 $ 95
State Of New Jersey Common Pension Fund D 2016-09-30 175,000 No Change 0 $ 0 $ 1,251
Pnc Financial Services Group Inc 2016-09-30 22,000 No Change 0 $ 0 $ 157
Omega Advisors Inc 2016-09-30 70,000 No Change 0 $ 0 $ 500
Walleye Trading Llc 2016-09-30 0 Sold All -200 $ -1 $ 0
Guggenheim Capital Llc 2016-09-30 19,457 Sold Some -2,228 $ -15 $ 139
Emerald Acquisition Ltd 2016-09-30 39,328 Sold Some -6,531 $ -46 $ 281
Fuller Thaler Asset Management Inc 2016-09-30 256,300 Sold Some -7,800 $ -55 $ 1,832
Two Sigma Securities Llc 2016-09-30 0 Sold All -10,448 $ -74 $ 0
Menta Capital Llc 2016-09-30 0 Sold All -41,597 $ -297 $ 0
Putnam Investments Llc 2016-09-30 0 Sold All -136,706 $ -977 $ 0
Benchmark Capital Advisors 2016-09-30 0 Sold All -393,783 $ -2,815 $ 0